createdAt,value
2018-07-26T00:00:40.800Z,1007.47
2018-07-26T00:01:40.792Z,1007.45
2018-07-26T00:02:40.778Z,1007.45
2018-07-26T00:03:40.906Z,1007.47
2018-07-26T00:04:40.781Z,1007.48
2018-07-26T00:05:40.847Z,1007.44
2018-07-26T00:06:40.740Z,1007.43
2018-07-26T00:07:40.824Z,1007.43
2018-07-26T00:08:40.733Z,1007.41
2018-07-26T00:09:40.727Z,1007.43
2018-07-26T00:10:40.696Z,1007.41
2018-07-26T00:11:40.791Z,1007.46
2018-07-26T00:12:40.678Z,1007.39
2018-07-26T00:13:40.722Z,1007.39
2018-07-26T00:14:40.712Z,1007.35
2018-07-26T00:15:40.644Z,1007.39
2018-07-26T00:16:40.762Z,1007.35
2018-07-26T00:17:40.618Z,1007.40
2018-07-26T00:18:40.621Z,1007.36
2018-07-26T00:19:40.605Z,1007.37
2018-07-26T00:20:40.645Z,1007.41
2018-07-26T00:21:40.637Z,1007.41
2018-07-26T00:22:40.692Z,1007.48
2018-07-26T00:23:40.581Z,1007.47
2018-07-26T00:24:40.549Z,1007.54
2018-07-26T00:25:40.650Z,1007.49
2018-07-26T00:26:40.663Z,1007.49
2018-07-26T00:27:40.669Z,1007.46
2018-07-26T00:28:40.526Z,1007.52
2018-07-26T00:29:40.606Z,1007.47
2018-07-26T00:30:40.500Z,1007.52
2018-07-26T00:31:40.471Z,1007.45
2018-07-26T00:32:40.596Z,1007.45
2018-07-26T00:33:40.472Z,1007.49
2018-07-26T00:34:40.449Z,1007.47
2018-07-26T00:35:40.428Z,1007.53
2018-07-26T00:36:41.429Z,1007.55
2018-07-26T00:37:40.518Z,1007.57
2018-07-26T00:38:40.417Z,1007.55
2018-07-26T00:39:40.487Z,1007.57
2018-07-26T00:40:40.497Z,1007.60
2018-07-26T00:41:40.379Z,1007.55
2018-07-26T00:42:40.369Z,1007.54
2018-07-26T00:43:40.350Z,1007.54
2018-07-26T00:44:40.340Z,1007.55
2018-07-26T00:45:40.334Z,1007.51
2018-07-26T00:46:40.442Z,1007.49
2018-07-26T00:47:40.315Z,1007.49
2018-07-26T00:48:40.443Z,1007.47
2018-07-26T00:49:40.302Z,1007.45
2018-07-26T00:50:40.284Z,1007.47
2018-07-26T00:51:40.255Z,1007.45
2018-07-26T00:52:40.313Z,1007.47
2018-07-26T00:53:40.238Z,1007.45
2018-07-26T00:54:40.307Z,1007.54
2018-07-26T00:55:40.224Z,1007.54
2018-07-26T00:56:40.235Z,1007.54
2018-07-26T00:57:40.208Z,1007.60
2018-07-26T00:58:40.205Z,1007.62
2018-07-26T00:59:40.185Z,1007.64
2018-07-26T01:00:40.186Z,1007.68
2018-07-26T01:01:40.169Z,1007.73
2018-07-26T01:02:40.153Z,1007.69
2018-07-26T01:03:40.162Z,1007.74
2018-07-26T01:04:40.178Z,1007.71
2018-07-26T01:05:40.120Z,1007.69
2018-07-26T01:06:40.113Z,1007.72
2018-07-26T01:07:40.114Z,1007.73
2018-07-26T01:08:40.115Z,1007.68
2018-07-26T01:09:40.099Z,1007.66
2018-07-26T01:10:40.189Z,1007.72
2018-07-26T01:11:40.061Z,1007.65
2018-07-26T01:12:40.101Z,1007.68
2018-07-26T01:13:40.022Z,1007.66
2018-07-26T01:14:40.043Z,1007.64
2018-07-26T01:15:40.140Z,1007.65
2018-07-26T01:16:40.074Z,1007.67
2018-07-26T01:17:40.107Z,1007.69
2018-07-26T01:18:39.989Z,1007.67
2018-07-26T01:19:40.009Z,1007.68
2018-07-26T01:20:40.074Z,1007.66
2018-07-26T01:21:39.957Z,1007.64
2018-07-26T01:22:40.010Z,1007.67
2018-07-26T01:23:40.045Z,1007.67
2018-07-26T01:24:39.933Z,1007.69
2018-07-26T01:25:40.012Z,1007.66
2018-07-26T01:26:39.908Z,1007.67
2018-07-26T01:27:39.996Z,1007.66
2018-07-26T01:28:39.877Z,1007.66
2018-07-26T01:29:39.874Z,1007.64
2018-07-26T01:30:39.854Z,1007.63
2018-07-26T01:31:39.832Z,1007.59
2018-07-26T01:32:39.930Z,1007.57
2018-07-26T01:33:39.830Z,1007.57
2018-07-26T01:34:39.929Z,1007.58
2018-07-26T01:35:40.071Z,1007.55
2018-07-26T01:36:39.784Z,1007.60
2018-07-26T01:37:39.830Z,1007.58
2018-07-26T01:38:39.841Z,1007.60
2018-07-26T01:39:39.776Z,1007.60
2018-07-26T01:40:39.840Z,1007.69
2018-07-26T01:41:39.834Z,1007.67
2018-07-26T01:42:39.747Z,1007.63
2018-07-26T01:43:39.704Z,1007.67
2018-07-26T01:44:39.715Z,1007.69
2018-07-26T01:45:39.839Z,1007.69
2018-07-26T01:46:39.703Z,1007.67
2018-07-26T01:47:39.667Z,1007.65
2018-07-26T01:48:39.717Z,1007.68
2018-07-26T01:49:39.660Z,1007.64
2018-07-26T01:50:39.660Z,1007.62
2018-07-26T01:51:39.621Z,1007.64
2018-07-26T01:52:39.647Z,1007.65
2018-07-26T01:53:39.806Z,1007.57
2018-07-26T01:54:39.614Z,1007.59
2018-07-26T01:55:39.589Z,1007.59
2018-07-26T01:56:39.894Z,1007.57
2018-07-26T01:57:39.583Z,1007.60
2018-07-26T01:58:39.552Z,1007.63
2018-07-26T01:59:39.538Z,1007.62
2018-07-26T02:00:39.664Z,1007.65
2018-07-26T02:01:39.630Z,1007.66
2018-07-26T02:02:39.525Z,1007.62
2018-07-26T02:03:39.599Z,1007.60
2018-07-26T02:04:39.484Z,1007.59
2018-07-26T02:05:39.493Z,1007.56
2018-07-26T02:06:39.477Z,1007.56
2018-07-26T02:07:39.464Z,1007.57
2018-07-26T02:08:39.447Z,1007.54
2018-07-26T02:09:39.435Z,1007.55
2018-07-26T02:10:39.485Z,1007.50
2018-07-26T02:11:39.422Z,1007.50
2018-07-26T02:12:39.400Z,1007.54
2018-07-26T02:13:39.390Z,1007.57
2018-07-26T02:14:39.397Z,1007.57
2018-07-26T02:15:39.507Z,1007.61
2018-07-26T02:16:39.485Z,1007.55
2018-07-26T02:17:39.351Z,1007.55
2018-07-26T02:18:39.351Z,1007.52
2018-07-26T02:19:39.351Z,1007.60
2018-07-26T02:20:39.331Z,1007.60
2018-07-26T02:21:39.316Z,1007.59
2018-07-26T02:22:39.324Z,1007.55
2018-07-26T02:23:39.286Z,1007.55
2018-07-26T02:24:39.291Z,1007.53
2018-07-26T02:25:39.358Z,1007.59
2018-07-26T02:26:39.279Z,1007.65
2018-07-26T02:27:39.277Z,1007.60
2018-07-26T02:28:39.249Z,1007.56
2018-07-26T02:29:39.381Z,1007.55
2018-07-26T02:30:39.229Z,1007.58
2018-07-26T02:31:39.216Z,1007.55
2018-07-26T02:32:39.255Z,1007.54
2018-07-26T02:33:39.196Z,1007.52
2018-07-26T02:34:39.180Z,1007.47
2018-07-26T02:35:39.310Z,1007.49
2018-07-26T02:36:39.167Z,1007.51
2018-07-26T02:37:39.149Z,1007.49
2018-07-26T02:38:39.143Z,1007.50
2018-07-26T02:39:39.206Z,1007.50
2018-07-26T02:40:39.134Z,1007.54
2018-07-26T02:41:39.147Z,1007.52
2018-07-26T02:42:39.116Z,1007.54
2018-07-26T02:43:39.132Z,1007.56
2018-07-26T02:44:39.079Z,1007.55
2018-07-26T02:45:39.068Z,1007.53
2018-07-26T02:46:39.063Z,1007.53
2018-07-26T02:47:39.114Z,1007.52
2018-07-26T02:48:39.159Z,1007.54
2018-07-26T02:49:39.013Z,1007.53
2018-07-26T02:50:39.001Z,1007.55
2018-07-26T02:51:39.021Z,1007.52
2018-07-26T02:52:39.056Z,1007.51
2018-07-26T02:53:38.994Z,1007.50
2018-07-26T02:54:38.960Z,1007.56
2018-07-26T02:55:38.954Z,1007.53
2018-07-26T02:56:38.962Z,1007.55
2018-07-26T02:57:38.945Z,1007.59
2018-07-26T02:58:38.924Z,1007.61
2018-07-26T02:59:38.915Z,1007.57
2018-07-26T03:00:39.180Z,1007.55
2018-07-26T03:01:38.929Z,1007.56
2018-07-26T03:02:38.897Z,1007.62
2018-07-26T03:03:38.873Z,1007.58
2018-07-26T03:04:38.952Z,1007.61
2018-07-26T03:05:38.901Z,1007.59
2018-07-26T03:06:38.848Z,1007.56
2018-07-26T03:07:38.832Z,1007.56
2018-07-26T03:08:38.825Z,1007.52
2018-07-26T03:09:38.813Z,1007.57
2018-07-26T03:10:38.884Z,1007.58
2018-07-26T03:11:38.900Z,1007.57
2018-07-26T03:12:38.774Z,1007.58
2018-07-26T03:13:38.760Z,1007.58
2018-07-26T03:14:38.763Z,1007.59
2018-07-26T03:15:38.752Z,1007.56
2018-07-26T03:16:38.744Z,1007.58
2018-07-26T03:17:38.714Z,1007.55
2018-07-26T03:18:38.804Z,1007.54
2018-07-26T03:19:38.812Z,1007.57
2018-07-26T03:20:38.834Z,1007.58
2018-07-26T03:21:38.688Z,1007.58
2018-07-26T03:22:38.677Z,1007.57
2018-07-26T03:23:38.783Z,1007.53
2018-07-26T03:24:38.693Z,1007.58
2018-07-26T03:25:38.762Z,1007.59
2018-07-26T03:26:38.734Z,1007.59
2018-07-26T03:27:38.622Z,1007.66
2018-07-26T03:28:38.601Z,1007.66
2018-07-26T03:29:38.596Z,1007.68
2018-07-26T03:30:39.723Z,1007.68
2018-07-26T03:31:38.656Z,1007.67
2018-07-26T03:32:38.691Z,1007.68
2018-07-26T03:33:38.578Z,1007.66
2018-07-26T03:34:38.532Z,1007.69
2018-07-26T03:35:38.528Z,1007.69
2018-07-26T03:36:38.534Z,1007.68
2018-07-26T03:37:38.505Z,1007.69
2018-07-26T03:38:38.626Z,1007.70
2018-07-26T03:39:38.498Z,1007.69
2018-07-26T03:40:38.483Z,1007.71
2018-07-26T03:41:38.475Z,1007.70
2018-07-26T03:42:38.448Z,1007.72
2018-07-26T03:43:38.545Z,1007.73
2018-07-26T03:44:38.450Z,1007.70
2018-07-26T03:45:38.409Z,1007.70
2018-07-26T03:46:38.417Z,1007.72
2018-07-26T03:47:38.491Z,1007.77
2018-07-26T03:48:38.380Z,1007.77
2018-07-26T03:49:38.399Z,1007.75
2018-07-26T03:50:38.486Z,1007.75
2018-07-26T03:51:38.365Z,1007.76
2018-07-26T03:52:38.378Z,1007.77
2018-07-26T03:53:38.413Z,1007.78
2018-07-26T03:54:38.318Z,1007.75
2018-07-26T03:55:38.409Z,1007.80
2018-07-26T03:56:39.429Z,1007.79
2018-07-26T03:57:38.413Z,1007.75
2018-07-26T03:58:38.297Z,1007.77
2018-07-26T03:59:38.261Z,1007.78
2018-07-26T04:00:38.252Z,1007.82
2018-07-26T04:01:38.258Z,1007.79
2018-07-26T04:02:38.252Z,1007.78
2018-07-26T04:03:38.223Z,1007.86
2018-07-26T04:04:38.331Z,1007.85
2018-07-26T04:05:38.355Z,1007.84
2018-07-26T04:06:38.183Z,1007.85
2018-07-26T04:07:38.207Z,1007.85
2018-07-26T04:08:38.179Z,1007.81
2018-07-26T04:09:38.252Z,1007.84
2018-07-26T04:10:38.266Z,1007.86
2018-07-26T04:11:38.228Z,1007.82
2018-07-26T04:12:38.136Z,1007.88
2018-07-26T04:13:38.154Z,1007.83
2018-07-26T04:14:38.169Z,1007.86
2018-07-26T04:15:39.324Z,1007.88
2018-07-26T04:16:38.086Z,1007.84
2018-07-26T04:17:38.093Z,1007.85
2018-07-26T04:18:38.116Z,1007.81
2018-07-26T04:19:38.059Z,1007.86
2018-07-26T04:20:38.050Z,1007.87
2018-07-26T04:21:38.034Z,1007.82
2018-07-26T04:22:38.029Z,1007.80
2018-07-26T04:23:38.018Z,1007.81
2018-07-26T04:24:38.012Z,1007.87
2018-07-26T04:25:37.998Z,1007.83
2018-07-26T04:26:38.073Z,1007.80
2018-07-26T04:27:38.090Z,1007.77
2018-07-26T04:28:38.098Z,1007.77
2018-07-26T04:29:37.941Z,1007.75
2018-07-26T04:30:37.940Z,1007.74
2018-07-26T04:31:38.043Z,1007.77
2018-07-26T04:32:37.928Z,1007.70
2018-07-26T04:33:37.918Z,1007.81
2018-07-26T04:34:37.968Z,1007.77
2018-07-26T04:35:37.888Z,1007.72
2018-07-26T04:36:37.873Z,1007.78
2018-07-26T04:37:37.987Z,1007.73
2018-07-26T04:38:37.918Z,1007.72
2018-07-26T04:39:37.855Z,1007.76
2018-07-26T04:40:37.823Z,1007.70
2018-07-26T04:41:37.912Z,1007.72
2018-07-26T04:42:37.910Z,1007.70
2018-07-26T04:43:37.966Z,1007.68
2018-07-26T04:44:37.914Z,1007.72
2018-07-26T04:45:37.783Z,1007.71
2018-07-26T04:46:37.777Z,1007.71
2018-07-26T04:47:37.762Z,1007.71
2018-07-26T04:48:37.773Z,1007.73
2018-07-26T04:49:37.746Z,1007.74
2018-07-26T04:50:37.714Z,1007.69
2018-07-26T04:51:37.721Z,1007.70
2018-07-26T04:52:37.727Z,1007.68
2018-07-26T04:53:37.702Z,1007.68
2018-07-26T04:54:37.827Z,1007.62
2018-07-26T04:55:37.670Z,1007.63
2018-07-26T04:56:37.671Z,1007.65
2018-07-26T04:57:37.655Z,1007.65
2018-07-26T04:58:39.793Z,1007.67
2018-07-26T04:59:37.632Z,1007.68
2018-07-26T05:00:37.741Z,1007.63
2018-07-26T05:01:37.681Z,1007.71
2018-07-26T05:02:37.590Z,1007.71
2018-07-26T05:03:37.617Z,1007.74
2018-07-26T05:04:37.709Z,1007.70
2018-07-26T05:05:37.552Z,1007.71
2018-07-26T05:06:37.619Z,1007.71
2018-07-26T05:07:38.416Z,1007.72
2018-07-26T05:08:37.596Z,1007.72
2018-07-26T05:09:37.528Z,1007.77
2018-07-26T05:10:37.528Z,1007.71
2018-07-26T05:11:37.618Z,1007.78
2018-07-26T05:12:37.516Z,1007.77
2018-07-26T05:13:37.498Z,1007.79
2018-07-26T05:14:37.586Z,1007.81
2018-07-26T05:15:37.459Z,1007.79
2018-07-26T05:16:37.436Z,1007.75
2018-07-26T05:17:37.485Z,1007.80
2018-07-26T05:18:37.439Z,1007.81
2018-07-26T05:19:37.440Z,1007.84
2018-07-26T05:20:37.412Z,1007.83
2018-07-26T05:21:37.385Z,1007.78
2018-07-26T05:22:37.508Z,1007.79
2018-07-26T05:23:37.377Z,1007.80
2018-07-26T05:24:37.498Z,1007.79
2018-07-26T05:25:37.453Z,1007.76
2018-07-26T05:26:37.460Z,1007.77
2018-07-26T05:27:37.364Z,1007.77
2018-07-26T05:28:38.348Z,1007.77
2018-07-26T05:29:37.404Z,1007.75
2018-07-26T05:30:37.302Z,1007.77
2018-07-26T05:31:37.286Z,1007.81
2018-07-26T05:32:37.287Z,1007.81
2018-07-26T05:33:37.358Z,1007.80
2018-07-26T05:34:37.377Z,1007.84
2018-07-26T05:35:37.233Z,1007.81
2018-07-26T05:36:37.388Z,1007.84
2018-07-26T05:37:37.295Z,1007.80
2018-07-26T05:38:37.344Z,1007.83
2018-07-26T05:39:37.308Z,1007.85
2018-07-26T05:40:37.188Z,1007.85
2018-07-26T05:41:37.283Z,1007.84
2018-07-26T05:42:37.179Z,1007.81
2018-07-26T05:43:37.292Z,1007.80
2018-07-26T05:44:37.167Z,1007.82
2018-07-26T05:45:37.719Z,1007.83
2018-07-26T05:46:37.177Z,1007.85
2018-07-26T05:47:37.235Z,1007.83
2018-07-26T05:48:37.223Z,1007.84
2018-07-26T05:49:37.224Z,1007.88
2018-07-26T05:50:37.234Z,1007.85
2018-07-26T05:51:37.076Z,1007.90
2018-07-26T05:52:37.064Z,1007.88
2018-07-26T05:53:37.152Z,1007.84
2018-07-26T05:54:37.202Z,1007.88
2018-07-26T05:55:37.142Z,1007.88
2018-07-26T05:56:37.033Z,1007.89
2018-07-26T05:57:37.027Z,1007.90
2018-07-26T05:58:37.173Z,1007.89
2018-07-26T05:59:37.174Z,1007.92
2018-07-26T06:00:37.087Z,1007.89
2018-07-26T06:01:37.077Z,1007.90
2018-07-26T06:02:37.089Z,1007.89
2018-07-26T06:03:37.062Z,1007.90
2018-07-26T06:04:36.932Z,1007.94
2018-07-26T06:05:37.054Z,1007.91
2018-07-26T06:06:37.050Z,1007.96
2018-07-26T06:07:37.660Z,1007.93
2018-07-26T06:08:36.947Z,1007.94
2018-07-26T06:09:37.100Z,1007.93
2018-07-26T06:10:36.864Z,1007.93
2018-07-26T06:11:36.854Z,1007.94
2018-07-26T06:12:36.963Z,1007.94
2018-07-26T06:13:36.840Z,1007.95
2018-07-26T06:14:37.009Z,1007.96
2018-07-26T06:15:36.925Z,1008.00
2018-07-26T06:16:36.823Z,1007.98
2018-07-26T06:17:36.907Z,1007.98
2018-07-26T06:18:37.225Z,1007.99
2018-07-26T06:19:36.883Z,1007.98
2018-07-26T06:20:36.961Z,1007.97
2018-07-26T06:21:36.797Z,1007.99
2018-07-26T06:22:36.811Z,1007.98
2018-07-26T06:23:36.862Z,1007.98
2018-07-26T06:24:36.875Z,1008.03
2018-07-26T06:25:36.718Z,1008.02
2018-07-26T06:26:36.691Z,1008.05
2018-07-26T06:27:36.800Z,1008.07
2018-07-26T06:28:37.408Z,1008.06
2018-07-26T06:29:36.832Z,1008.02
2018-07-26T06:30:36.651Z,1007.97
2018-07-26T06:31:36.754Z,1008.03
2018-07-26T06:32:36.655Z,1008.03
2018-07-26T06:33:36.780Z,1008.00
2018-07-26T06:34:36.612Z,1007.96
2018-07-26T06:35:36.726Z,1007.97
2018-07-26T06:36:36.696Z,1007.98
2018-07-26T06:37:36.706Z,1007.96
2018-07-26T06:38:36.728Z,1007.94
2018-07-26T06:39:36.713Z,1007.99
2018-07-26T06:40:36.670Z,1008.02
2018-07-26T06:41:36.663Z,1007.92
2018-07-26T06:42:36.693Z,1007.96
2018-07-26T06:43:36.618Z,1007.95
2018-07-26T06:44:37.688Z,1007.93
2018-07-26T06:45:36.650Z,1007.95
2018-07-26T06:46:36.617Z,1007.95
2018-07-26T06:47:36.476Z,1007.96
2018-07-26T06:48:36.500Z,1007.88
2018-07-26T06:49:36.457Z,1007.94
2018-07-26T06:50:36.568Z,1007.95
2018-07-26T06:51:36.563Z,1007.95
2018-07-26T06:52:36.415Z,1007.98
2018-07-26T06:53:36.542Z,1007.97
2018-07-26T06:54:36.574Z,1007.95
2018-07-26T06:55:36.437Z,1007.95
2018-07-26T06:56:38.061Z,1007.91
2018-07-26T06:57:36.517Z,1007.93
2018-07-26T06:58:37.953Z,1007.92
2018-07-26T06:59:36.476Z,1007.93
2018-07-26T07:00:36.468Z,1007.96
2018-07-26T07:01:36.333Z,1007.92
2018-07-26T07:02:36.439Z,1007.92
2018-07-26T07:03:36.523Z,1007.93
2018-07-26T07:04:36.677Z,1007.92
2018-07-26T07:05:36.295Z,1007.90
2018-07-26T07:06:36.278Z,1007.92
2018-07-26T07:07:36.389Z,1007.88
2018-07-26T07:08:36.382Z,1007.86
2018-07-26T07:09:36.348Z,1007.89
2018-07-26T07:10:36.339Z,1007.87
2018-07-26T07:11:36.351Z,1007.88
2018-07-26T07:12:36.213Z,1007.86
2018-07-26T07:13:36.373Z,1007.82
2018-07-26T07:14:36.200Z,1007.77
2018-07-26T07:15:36.201Z,1007.85
2018-07-26T07:16:36.263Z,1007.81
2018-07-26T07:17:36.274Z,1007.83
2018-07-26T07:18:36.218Z,1007.80
2018-07-26T07:19:36.261Z,1007.77
2018-07-26T07:20:36.316Z,1007.81
2018-07-26T07:21:36.439Z,1007.80
2018-07-26T07:22:36.211Z,1007.80
2018-07-26T07:23:36.238Z,1007.78
2018-07-26T07:24:36.177Z,1007.78
2018-07-26T07:25:36.180Z,1007.83
2018-07-26T07:26:36.357Z,1007.81
2018-07-26T07:27:36.149Z,1007.80
2018-07-26T07:28:36.033Z,1007.84
2018-07-26T07:29:36.187Z,1007.77
2018-07-26T07:30:36.180Z,1007.79
2018-07-26T07:31:36.017Z,1007.80
2018-07-26T07:32:36.097Z,1007.80
2018-07-26T07:33:36.984Z,1007.79
2018-07-26T07:34:36.118Z,1007.81
2018-07-26T07:35:36.099Z,1007.80
2018-07-26T07:36:35.955Z,1007.75
2018-07-26T07:37:36.136Z,1007.80
2018-07-26T07:38:36.069Z,1007.78
2018-07-26T07:39:36.122Z,1007.76
2018-07-26T07:40:36.029Z,1007.71
2018-07-26T07:41:35.909Z,1007.72
2018-07-26T07:42:35.896Z,1007.70
2018-07-26T07:43:36.008Z,1007.67
2018-07-26T07:44:35.984Z,1007.72
2018-07-26T07:45:35.947Z,1007.69
2018-07-26T07:46:35.959Z,1007.71
2018-07-26T07:47:36.146Z,1007.72
2018-07-26T07:48:35.842Z,1007.73
2018-07-26T07:49:35.885Z,1007.72
2018-07-26T07:50:36.015Z,1007.73
2018-07-26T07:51:35.917Z,1007.73
2018-07-26T07:52:35.787Z,1007.73
2018-07-26T07:53:35.871Z,1007.72
2018-07-26T07:54:37.507Z,1007.68
2018-07-26T07:55:35.762Z,1007.70
2018-07-26T07:56:35.875Z,1007.67
2018-07-26T07:57:35.871Z,1007.68
2018-07-26T07:58:35.835Z,1007.66
2018-07-26T07:59:35.962Z,1007.68
2018-07-26T08:00:35.820Z,1007.64
2018-07-26T08:01:35.810Z,1007.66
2018-07-26T08:02:35.805Z,1007.63
2018-07-26T08:03:35.796Z,1007.65
2018-07-26T08:04:35.776Z,1007.61
2018-07-26T08:05:36.650Z,1007.66
2018-07-26T08:06:35.771Z,1007.66
2018-07-26T08:07:36.946Z,1007.62
2018-07-26T08:08:35.749Z,1007.61
2018-07-26T08:09:35.609Z,1007.65
2018-07-26T08:10:35.719Z,1007.64
2018-07-26T08:11:35.603Z,1007.70
2018-07-26T08:12:35.749Z,1007.69
2018-07-26T08:13:35.703Z,1007.64
2018-07-26T08:14:35.696Z,1007.67
2018-07-26T08:15:35.691Z,1007.70
2018-07-26T08:16:35.618Z,1007.64
2018-07-26T08:17:35.533Z,1007.66
2018-07-26T08:18:35.630Z,1007.66
2018-07-26T08:19:35.609Z,1007.68
2018-07-26T08:20:35.594Z,1007.65
2018-07-26T08:21:35.494Z,1007.66
2018-07-26T08:22:35.578Z,1007.67
2018-07-26T08:23:35.452Z,1007.68
2018-07-26T08:24:35.563Z,1007.64
2018-07-26T08:25:35.522Z,1007.64
2018-07-26T08:26:35.505Z,1007.62
2018-07-26T08:27:35.541Z,1007.62
2018-07-26T08:28:35.553Z,1007.58
2018-07-26T08:29:35.406Z,1007.62
2018-07-26T08:30:35.548Z,1007.60
2018-07-26T08:31:35.372Z,1007.63
2018-07-26T08:32:35.478Z,1007.59
2018-07-26T08:33:35.404Z,1007.60
2018-07-26T08:34:35.478Z,1007.56
2018-07-26T08:35:35.483Z,1007.55
2018-07-26T08:36:36.218Z,1007.55
2018-07-26T08:37:35.410Z,1007.56
2018-07-26T08:38:35.543Z,1007.55
2018-07-26T08:39:35.728Z,1007.55
2018-07-26T08:40:35.444Z,1007.57
2018-07-26T08:41:35.399Z,1007.58
2018-07-26T08:42:35.538Z,1007.53
2018-07-26T08:43:35.390Z,1007.53
2018-07-26T08:44:35.319Z,1007.54
2018-07-26T08:45:35.358Z,1007.55
2018-07-26T08:46:35.212Z,1007.58
2018-07-26T08:47:35.189Z,1007.54
2018-07-26T08:48:35.306Z,1007.53
2018-07-26T08:49:35.320Z,1007.55
2018-07-26T08:50:35.458Z,1007.54
2018-07-26T08:51:35.285Z,1007.54
2018-07-26T08:52:35.339Z,1007.54
2018-07-26T08:53:35.267Z,1007.54
2018-07-26T08:54:35.264Z,1007.51
2018-07-26T08:55:35.255Z,1007.47
2018-07-26T08:56:35.341Z,1007.52
2018-07-26T08:57:35.099Z,1007.53
2018-07-26T08:58:35.364Z,1007.54
2018-07-26T08:59:35.186Z,1007.54
2018-07-26T09:00:37.711Z,1007.56
2018-07-26T09:01:35.161Z,1007.55
2018-07-26T09:02:35.192Z,1007.52
2018-07-26T09:03:35.040Z,1007.57
2018-07-26T09:04:35.165Z,1007.55
2018-07-26T09:05:35.126Z,1007.53
2018-07-26T09:06:35.141Z,1007.49
2018-07-26T09:07:35.132Z,1007.49
2018-07-26T09:08:35.047Z,1007.50
2018-07-26T09:09:35.107Z,1007.49
2018-07-26T09:10:35.096Z,1007.51
2018-07-26T09:11:35.038Z,1007.46
2018-07-26T09:12:35.077Z,1007.43
2018-07-26T09:13:34.996Z,1007.46
2018-07-26T09:14:35.090Z,1007.47
2018-07-26T09:15:35.041Z,1007.48
2018-07-26T09:16:34.945Z,1007.47
2018-07-26T09:17:35.008Z,1007.48
2018-07-26T09:18:34.881Z,1007.45
2018-07-26T09:19:35.041Z,1007.45
2018-07-26T09:20:34.879Z,1007.40
2018-07-26T09:21:34.980Z,1007.41
2018-07-26T09:22:34.921Z,1007.41
2018-07-26T09:23:34.821Z,1007.45
2018-07-26T09:24:35.046Z,1007.41
2018-07-26T09:25:34.912Z,1007.45
2018-07-26T09:26:36.115Z,1007.40
2018-07-26T09:27:34.777Z,1007.41
2018-07-26T09:28:34.762Z,1007.44
2018-07-26T09:29:34.869Z,1007.41
2018-07-26T09:30:34.898Z,1007.39
2018-07-26T09:31:34.940Z,1007.36
2018-07-26T09:32:34.875Z,1007.37
2018-07-26T09:33:37.772Z,1007.40
2018-07-26T09:34:37.332Z,1007.37
2018-07-26T09:35:34.712Z,1007.38
2018-07-26T09:36:34.823Z,1007.40
2018-07-26T09:37:34.681Z,1007.38
2018-07-26T09:38:34.834Z,1007.36
2018-07-26T09:39:34.802Z,1007.38
2018-07-26T09:40:36.252Z,1007.38
2018-07-26T09:41:34.749Z,1007.38
2018-07-26T09:42:34.816Z,1007.33
2018-07-26T09:43:34.731Z,1007.31
2018-07-26T09:44:34.611Z,1007.32
2018-07-26T09:45:34.623Z,1007.30
2018-07-26T09:46:34.594Z,1007.31
2018-07-26T09:47:34.694Z,1007.30
2018-07-26T09:48:34.551Z,1007.30
2018-07-26T09:49:35.034Z,1007.27
2018-07-26T09:50:34.534Z,1007.31
2018-07-26T09:51:34.912Z,1007.26
2018-07-26T09:52:34.538Z,1007.24
2018-07-26T09:53:34.640Z,1007.23
2018-07-26T09:54:34.610Z,1007.25
2018-07-26T09:55:34.595Z,1007.22
2018-07-26T09:56:34.601Z,1007.33
2018-07-26T09:57:34.584Z,1007.23
2018-07-26T09:58:34.639Z,1007.24
2018-07-26T09:59:34.625Z,1007.24
2018-07-26T10:00:34.541Z,1007.22
2018-07-26T10:01:34.489Z,1007.20
2018-07-26T10:02:34.543Z,1007.15
2018-07-26T10:03:34.514Z,1007.12
2018-07-26T10:04:34.447Z,1007.13
2018-07-26T10:05:34.707Z,1007.15
2018-07-26T10:06:35.465Z,1007.15
2018-07-26T10:07:34.574Z,1007.13
2018-07-26T10:08:34.498Z,1007.14
2018-07-26T10:09:35.723Z,1007.12
2018-07-26T10:10:34.436Z,1007.14
2018-07-26T10:11:34.441Z,1007.09
2018-07-26T10:12:34.307Z,1007.10
2018-07-26T10:13:34.428Z,1007.09
2018-07-26T10:14:34.437Z,1007.11
2018-07-26T10:15:34.448Z,1007.05
2018-07-26T10:16:34.380Z,1007.05
2018-07-26T10:17:34.377Z,1007.06
2018-07-26T10:18:34.254Z,1007.03
2018-07-26T10:19:34.351Z,1007.03
2018-07-26T10:20:34.378Z,1007.05
2018-07-26T10:21:34.340Z,1007.08
2018-07-26T10:22:34.346Z,1007.00
2018-07-26T10:23:34.222Z,1007.05
2018-07-26T10:24:34.293Z,1006.94
2018-07-26T10:25:34.403Z,1006.88
2018-07-26T10:26:34.271Z,1006.91
2018-07-26T10:27:34.285Z,1006.93
2018-07-26T10:28:34.258Z,1006.95
2018-07-26T10:29:34.236Z,1006.90
2018-07-26T10:30:34.394Z,1006.90
2018-07-26T10:31:34.108Z,1006.88
2018-07-26T10:32:34.107Z,1006.90
2018-07-26T10:33:34.254Z,1006.91
2018-07-26T10:34:34.187Z,1006.92
2018-07-26T10:35:34.160Z,1006.89
2018-07-26T10:36:34.126Z,1006.93
2018-07-26T10:37:34.184Z,1006.87
2018-07-26T10:38:34.143Z,1006.88
2018-07-26T10:39:34.221Z,1006.86
2018-07-26T10:40:34.266Z,1006.88
2018-07-26T10:41:34.114Z,1006.84
2018-07-26T10:42:34.110Z,1006.83
2018-07-26T10:43:34.142Z,1006.81
2018-07-26T10:44:34.100Z,1006.82
2018-07-26T10:45:34.063Z,1006.76
2018-07-26T10:46:34.039Z,1006.79
2018-07-26T10:47:34.029Z,1006.78
2018-07-26T10:48:34.069Z,1006.77
2018-07-26T10:49:33.916Z,1006.75
2018-07-26T10:50:34.009Z,1006.76
2018-07-26T10:51:33.924Z,1006.73
2018-07-26T10:52:34.088Z,1006.76
2018-07-26T10:53:33.997Z,1006.79
2018-07-26T10:54:33.982Z,1006.76
2018-07-26T10:55:33.858Z,1006.79
2018-07-26T10:56:33.935Z,1006.75
2018-07-26T10:57:33.929Z,1006.77
2018-07-26T10:58:33.959Z,1006.77
2018-07-26T10:59:34.042Z,1006.71
2018-07-26T11:00:34.040Z,1006.71
2018-07-26T11:01:33.785Z,1006.69
2018-07-26T11:02:33.830Z,1006.73
2018-07-26T11:03:33.872Z,1006.68
2018-07-26T11:04:33.917Z,1006.73
2018-07-26T11:05:33.843Z,1006.71
2018-07-26T11:06:33.824Z,1006.73
2018-07-26T11:07:33.836Z,1006.72
2018-07-26T11:08:33.855Z,1006.73
2018-07-26T11:09:33.839Z,1006.69
2018-07-26T11:10:33.803Z,1006.70
2018-07-26T11:11:33.685Z,1006.72
2018-07-26T11:12:33.782Z,1006.66
2018-07-26T11:13:33.802Z,1006.72
2018-07-26T11:14:33.773Z,1006.73
2018-07-26T11:15:33.788Z,1006.68
2018-07-26T11:16:33.745Z,1006.68
2018-07-26T11:17:33.750Z,1006.76
2018-07-26T11:18:33.652Z,1006.77
2018-07-26T11:19:33.720Z,1006.69
2018-07-26T11:20:33.689Z,1006.67
2018-07-26T11:21:33.590Z,1006.71
2018-07-26T11:22:33.620Z,1006.71
2018-07-26T11:23:33.686Z,1006.70
2018-07-26T11:24:33.556Z,1006.72
2018-07-26T11:25:33.719Z,1006.65
2018-07-26T11:26:33.525Z,1006.67
2018-07-26T11:27:33.525Z,1006.66
2018-07-26T11:28:33.646Z,1006.67
2018-07-26T11:29:33.627Z,1006.66
2018-07-26T11:30:33.594Z,1006.64
2018-07-26T11:31:33.653Z,1006.69
2018-07-26T11:32:33.547Z,1006.64
2018-07-26T11:33:33.554Z,1006.66
2018-07-26T11:34:33.522Z,1006.65
2018-07-26T11:35:33.448Z,1006.62
2018-07-26T11:36:33.544Z,1006.67
2018-07-26T11:37:33.424Z,1006.61
2018-07-26T11:38:33.522Z,1006.62
2018-07-26T11:39:33.390Z,1006.63
2018-07-26T11:40:33.473Z,1006.61
2018-07-26T11:41:33.400Z,1006.59
2018-07-26T11:42:33.536Z,1006.55
2018-07-26T11:43:33.598Z,1006.56
2018-07-26T11:44:33.387Z,1006.58
2018-07-26T11:45:33.440Z,1006.55
2018-07-26T11:46:33.430Z,1006.52
2018-07-26T11:47:33.403Z,1006.57
2018-07-26T11:48:33.395Z,1006.57
2018-07-26T11:49:33.428Z,1006.55
2018-07-26T11:50:33.358Z,1006.56
2018-07-26T11:51:33.383Z,1006.53
2018-07-26T11:52:33.371Z,1006.47
2018-07-26T11:53:33.270Z,1006.47
2018-07-26T11:54:33.305Z,1006.44
2018-07-26T11:55:33.321Z,1006.42
2018-07-26T11:56:33.461Z,1006.44
2018-07-26T11:57:33.322Z,1006.42
2018-07-26T11:58:33.335Z,1006.40
2018-07-26T11:59:33.321Z,1006.38
2018-07-26T12:00:33.171Z,1006.41
2018-07-26T12:01:33.333Z,1006.42
2018-07-26T12:02:33.362Z,1006.40
2018-07-26T12:03:33.274Z,1006.36
2018-07-26T12:04:33.155Z,1006.33
2018-07-26T12:05:33.141Z,1006.32